Terminal Aerodrome Forecast
Issued by NWS

Home | Current Version | Previous Version | Text Only | Print | Product List | Glossary On
Versions: 1 2 3 4 5 6 7 8 9 10 11 12 13 14 15 16 17 18 19 20 21
000
FTUS44 KTSA 150500
TAFMLC
TAF
KMLC 150520Z 1506/1606 17004KT P6SM VCSH SCT035 BKN100
     FM151500 19006KT P6SM BKN100
     FM151900 22007KT P6SM SCT050 BKN250
     FM160000 16004KT P6SM SCT110 BKN250=

USA.gov is the U.S. government's official web portal to all federal, state and local government web resources and services.